Panoche, California
Current Conditions -  °F | °C
As of 11:53 AM on Monday 24 Nov 2014 (Local Time) from KSNS Reporting Station
Clear Clear  
Wind Chill: 62°   Ceiling: Unl
Heat Index: 62°   Visibility: 10mi
Dew Point: 41°   Wind: 0mph
Humidity: 46%   Direction: NA
Pressure: 30.36"   Gusts: NA
Location:  36.4824°N, 120.948°W
Report Text: KSNS 241953Z 00000KT 10SM CLR 17/05 A3036 RMK AO2 SLP288 T01670050
Loading
Personal Weather Stations






























Interactive Weather Map New forecast layout! Learn more

10-Day Weather Forecast

Advertisements
Track Severe Weather on mobile